createdAt,value
2018-07-12T00:00:18.746Z,55.80
2018-07-12T00:05:15.955Z,55.90
2018-07-12T00:15:10.316Z,55.90
2018-07-12T00:17:38.914Z,55.90
2018-07-12T00:20:07.502Z,55.80
2018-07-12T00:27:33.654Z,55.80
2018-07-12T00:32:30.845Z,55.90
2018-07-12T00:37:28.030Z,55.80
2018-07-12T00:39:56.600Z,55.80
2018-07-12T00:49:54.853Z,55.80
2018-07-12T00:59:49.717Z,55.80
2018-07-12T01:07:15.769Z,55.80
2018-07-12T01:09:44.355Z,55.90
2018-07-12T01:14:41.708Z,55.80
2018-07-12T01:17:10.278Z,55.90
2018-07-12T01:22:07.467Z,55.80
2018-07-12T01:27:04.637Z,56.00
2018-07-12T01:34:30.445Z,56.00
2018-07-12T01:39:27.645Z,56.00
2018-07-12T01:41:56.233Z,56.00
2018-07-12T01:46:53.401Z,56.10
2018-07-12T01:49:21.964Z,56.10
2018-07-12T01:56:48.174Z,56.10
2018-07-12T01:59:16.754Z,56.10
2018-07-12T02:06:42.596Z,56.20
2018-07-12T02:11:39.760Z,56.20
2018-07-12T02:19:05.546Z,56.20
2018-07-12T02:21:34.114Z,56.30
2018-07-12T02:26:31.585Z,56.20
2018-07-12T02:29:00.153Z,56.20
2018-07-12T02:33:57.924Z,56.30
2018-07-12T02:36:26.502Z,56.30
2018-07-12T02:38:55.079Z,56.30
2018-07-12T02:46:20.916Z,56.40
2018-07-12T02:51:18.130Z,56.40
2018-07-12T03:03:41.428Z,56.40
2018-07-12T03:16:05.149Z,56.50
2018-07-12T03:23:31.193Z,56.50
2018-07-12T03:25:59.775Z,56.50
2018-07-12T03:30:56.958Z,56.60
2018-07-12T03:33:25.522Z,56.60
2018-07-12T03:35:54.085Z,56.50
2018-07-12T03:43:19.893Z,56.70
2018-07-12T03:45:48.467Z,56.70
2018-07-12T03:50:45.960Z,56.70
2018-07-12T03:53:14.520Z,56.70
2018-07-12T04:00:40.656Z,56.70
2018-07-12T04:05:38.074Z,56.70
2018-07-12T04:08:06.639Z,56.70
2018-07-12T04:10:35.226Z,56.70
2018-07-12T04:13:03.779Z,56.70
2018-07-12T04:15:32.331Z,56.80
2018-07-12T04:20:29.517Z,56.80
2018-07-12T04:25:26.691Z,56.80
2018-07-12T04:32:52.857Z,56.80
2018-07-12T04:40:18.911Z,56.90
2018-07-12T04:42:47.493Z,57.00
2018-07-12T04:50:13.305Z,57.00
2018-07-12T04:52:41.895Z,57.00
2018-07-12T05:05:05.059Z,57.00
2018-07-12T05:12:30.855Z,57.00
2018-07-12T05:14:59.417Z,57.10
2018-07-12T05:19:56.597Z,57.10
2018-07-12T05:22:25.182Z,57.10
2018-07-12T05:24:53.749Z,57.10
2018-07-12T05:27:22.324Z,57.10
2018-07-12T05:32:19.492Z,57.10
2018-07-12T05:39:47.348Z,57.10
2018-07-12T05:44:45.969Z,57.20
2018-07-12T05:47:15.505Z,57.20
2018-07-12T05:52:14.142Z,57.30
2018-07-12T05:54:43.678Z,57.40
2018-07-12T05:59:42.667Z,57.30
2018-07-12T06:12:20.880Z,57.60
2018-07-12T06:14:51.072Z,57.60
2018-07-12T06:27:17.997Z,57.30
2018-07-12T06:29:47.569Z,57.20
2018-07-12T06:32:17.165Z,57.10
2018-07-12T06:34:46.716Z,57.20
2018-07-12T06:37:16.365Z,57.20
2018-07-12T06:39:45.839Z,57.20
2018-07-12T06:57:10.128Z,57.80
2018-07-12T06:59:39.793Z,58.00
2018-07-12T07:02:09.347Z,58.30
2018-07-12T07:04:38.931Z,58.60
2018-07-12T07:07:08.481Z,58.40
2018-07-12T07:12:07.417Z,58.30
2018-07-12T07:19:35.755Z,58.70
2018-07-12T07:22:05.338Z,58.60
2018-07-12T07:27:04.020Z,59.00
2018-07-12T07:29:33.560Z,58.80
2018-07-12T07:39:30.351Z,57.80
2018-07-12T07:44:29.017Z,57.40
2018-07-12T07:46:58.595Z,57.30
2018-07-12T07:56:55.388Z,56.80
2018-07-12T07:59:24.925Z,57.10
2018-07-12T08:14:20.186Z,56.30
2018-07-12T08:21:48.245Z,55.50
2018-07-12T08:24:17.791Z,55.30
2018-07-12T08:26:48.162Z,54.90
2018-07-12T08:29:18.990Z,53.70
2018-07-12T08:31:48.517Z,53.50
2018-07-12T08:36:47.177Z,53.10
2018-07-12T08:39:17.239Z,53.40
2018-07-12T08:41:46.780Z,54.30
2018-07-12T08:46:45.762Z,55.10
2018-07-12T09:06:40.284Z,55.40
2018-07-12T09:16:37.221Z,55.80
2018-07-12T09:19:06.752Z,55.80
2018-07-12T09:24:05.373Z,56.00
2018-07-12T09:26:35.380Z,57.10
2018-07-12T09:31:33.996Z,55.30
2018-07-12T09:36:32.600Z,55.60
2018-07-12T09:39:02.150Z,55.50
2018-07-12T09:41:31.687Z,55.90
2018-07-12T09:51:28.754Z,50.50
2018-07-12T09:59:02.013Z,48.20
2018-07-12T10:01:37.589Z,48.80
2018-07-12T10:06:41.536Z,48.50
2018-07-12T10:09:16.388Z,48.50
2018-07-12T10:31:55.910Z,49.90
2018-07-12T10:34:26.228Z,50.20
2018-07-12T10:46:52.356Z,48.80
2018-07-12T10:49:21.938Z,48.50
2018-07-12T10:54:20.906Z,48.40
2018-07-12T10:56:50.625Z,46.10
2018-07-12T10:59:20.165Z,45.30
2018-07-12T11:04:18.789Z,46.70
2018-07-12T11:06:48.300Z,44.70
2018-07-12T11:09:17.845Z,45.00
2018-07-12T11:11:47.378Z,46.10
2018-07-12T11:26:42.381Z,47.40
2018-07-12T11:31:40.998Z,48.30
2018-07-12T11:34:10.534Z,48.60
2018-07-12T11:36:40.058Z,48.90
2018-07-12T11:46:36.851Z,49.40
2018-07-12T11:51:35.502Z,49.60
2018-07-12T11:56:34.135Z,49.60
2018-07-12T11:59:03.680Z,49.90
2018-07-12T12:04:02.377Z,50.10
2018-07-12T12:06:31.900Z,50.10
2018-07-12T12:11:30.547Z,50.30
2018-07-12T12:16:29.188Z,50.50
2018-07-12T12:18:58.750Z,50.50
2018-07-12T12:23:57.379Z,50.60
2018-07-12T12:28:55.980Z,50.60
2018-07-12T12:41:21.887Z,45.20
2018-07-12T12:46:20.489Z,44.10
2018-07-12T12:48:50.031Z,44.70
2018-07-12T12:53:48.663Z,44.60
2018-07-12T12:56:18.192Z,44.60
2018-07-12T12:58:48.475Z,44.40
2018-07-12T13:06:16.949Z,45.40
2018-07-12T13:21:12.792Z,42.40
2018-07-12T13:23:42.316Z,41.80
2018-07-12T13:36:09.091Z,43.60
2018-07-12T13:41:07.736Z,42.20
2018-07-12T13:48:35.438Z,41.70
2018-07-12T13:58:32.244Z,42.50
2018-07-12T14:03:30.935Z,43.20
2018-07-12T14:10:59.246Z,45.60
2018-07-12T14:18:26.991Z,46.40
2018-07-12T14:23:25.606Z,46.80
2018-07-12T14:28:24.208Z,47.10
2018-07-12T14:30:53.745Z,47.20
2018-07-12T14:45:48.767Z,47.80
2018-07-12T14:48:18.311Z,47.90
2018-07-12T14:58:15.137Z,48.20
2018-07-12T15:08:11.956Z,47.80
2018-07-12T15:10:41.479Z,46.80
2018-07-12T15:20:38.249Z,45.60
2018-07-12T15:30:35.570Z,43.80
2018-07-12T15:33:05.848Z,44.20
2018-07-12T15:40:34.080Z,42.70
2018-07-12T15:43:03.849Z,42.90
2018-07-12T15:45:33.356Z,42.50
2018-07-12T15:55:30.351Z,41.90
2018-07-12T16:02:58.328Z,42.40
2018-07-12T16:07:56.958Z,42.60
2018-07-12T16:12:55.561Z,42.70
2018-07-12T16:15:25.091Z,42.80
2018-07-12T16:20:23.674Z,43.50
2018-07-12T16:22:53.208Z,43.40
2018-07-12T16:25:22.737Z,43.00
2018-07-12T16:27:52.744Z,43.20
2018-07-12T16:30:22.848Z,43.50
2018-07-12T16:32:52.377Z,43.70
2018-07-12T16:37:51.483Z,43.40
2018-07-12T16:40:21.010Z,43.20
2018-07-12T16:42:50.709Z,43.20
2018-07-12T16:47:49.343Z,42.90
2018-07-12T16:52:47.961Z,43.10
2018-07-12T16:55:17.480Z,42.90
2018-07-12T17:00:18.886Z,43.00
2018-07-12T17:02:49.716Z,43.00
2018-07-12T17:07:48.678Z,43.30
2018-07-12T17:10:18.168Z,43.40
2018-07-12T17:20:14.962Z,44.40
2018-07-12T17:22:44.482Z,44.70
2018-07-12T17:25:14.020Z,45.20
2018-07-12T17:30:13.763Z,45.20
2018-07-12T17:42:39.617Z,46.30
2018-07-12T17:52:36.677Z,45.60
2018-07-12T17:57:35.306Z,45.40
2018-07-12T18:00:05.080Z,45.30
2018-07-12T18:05:03.834Z,45.50
2018-07-12T18:12:33.590Z,45.90
2018-07-12T18:15:03.129Z,44.80
2018-07-12T18:20:01.779Z,45.40
2018-07-12T18:25:00.382Z,45.40
2018-07-12T18:29:58.976Z,45.60
2018-07-12T18:32:28.522Z,45.60
2018-07-12T18:37:28.436Z,45.90
2018-07-12T18:39:57.980Z,46.10
2018-07-12T18:42:27.533Z,46.20
2018-07-12T18:47:26.148Z,46.40
2018-07-12T18:54:53.890Z,46.80
2018-07-12T18:59:52.514Z,47.00
2018-07-12T19:02:22.053Z,47.10
2018-07-12T19:07:20.690Z,47.40
2018-07-12T19:14:48.725Z,47.70
2018-07-12T19:17:18.609Z,47.60
2018-07-12T19:22:17.236Z,47.70
2018-07-12T19:24:46.765Z,47.80
2018-07-12T19:27:16.317Z,47.80
2018-07-12T19:29:45.836Z,47.80
2018-07-12T19:34:44.473Z,47.90
2018-07-12T19:37:14.269Z,48.10
2018-07-12T19:42:12.979Z,48.20
2018-07-12T19:44:42.546Z,48.20
2018-07-12T19:49:41.196Z,48.20
2018-07-12T19:52:10.753Z,48.40
2018-07-12T19:57:09.369Z,48.50
2018-07-12T20:02:08.039Z,48.60
2018-07-12T20:04:37.596Z,48.70
2018-07-12T20:09:36.213Z,48.80
2018-07-12T20:12:06.061Z,48.80
2018-07-12T20:17:04.662Z,48.90
2018-07-12T20:19:34.215Z,49.00
2018-07-12T20:24:32.856Z,49.10
2018-07-12T20:29:31.790Z,49.20
2018-07-12T20:32:01.764Z,49.20
2018-07-12T20:34:32.416Z,49.30
2018-07-12T20:39:31.061Z,49.30
2018-07-12T20:49:28.325Z,49.50
2018-07-12T20:56:56.013Z,49.70
2018-07-12T21:01:54.663Z,49.60
2018-07-12T21:06:53.311Z,50.00
2018-07-12T21:09:22.851Z,50.00
2018-07-12T21:14:21.499Z,49.90
2018-07-12T21:24:18.295Z,50.10
2018-07-12T21:31:46.020Z,50.10
2018-07-12T21:46:40.989Z,50.60
2018-07-12T21:51:39.647Z,50.60
2018-07-12T21:54:09.468Z,50.60
2018-07-12T22:04:09.298Z,50.80
2018-07-12T22:06:47.693Z,50.80
2018-07-12T22:11:46.387Z,50.90
2018-07-12T22:14:16.161Z,50.90
2018-07-12T22:26:42.486Z,51.30
2018-07-12T22:29:12.045Z,51.30
2018-07-12T22:36:40.306Z,51.50
2018-07-12T22:39:09.835Z,51.40
2018-07-12T22:44:08.485Z,51.60
2018-07-12T22:51:43.195Z,51.60
2018-07-12T22:59:11.013Z,51.80
2018-07-12T23:04:09.620Z,51.80
2018-07-12T23:26:32.469Z,52.00
2018-07-12T23:41:27.573Z,52.30
2018-07-12T23:43:57.601Z,52.30
2018-07-12T23:46:27.136Z,52.30
2018-07-12T23:51:26.038Z,52.40
2018-07-12T23:53:55.578Z,52.40
